»·PEaware :: N47672 KSNA-KSNA

N47672 :: KSNA-KSNA

FLIGHT INFORMATION

Flight Status: Arrived
Operator: Privately registered:
United States
More flights under this callsign
Pilot: Jeff K. (12978)
Aircraft: CESSNA 172 SKYHAWK
(C172)
More flights by this aircraft type
Origin: KSNA John Wayne-Orange Co
United States
Destination: KSNA John Wayne-Orange Co
United States
More flights between these airports :: More routes between these airports
Route: +SLI
File this flight plan on PilotEdge
Remarks:
Altitude:
(Current/Filed)
3,000ft
Speed:
(Current/Filed)
120kts
Departed: 11-Oct-20 07:33 PM
Arrived: 11-Oct-20 08:14 PM
Distance/Time
Traveled:
0nm/0:41
Distance/Time
To Go:
Arrived

Flight Plot

Page will automatically refresh every two minutes.


Map Options




Map Legend


Flown Route
Filed Route
Departure Airport
Arrival Airport
Navaid (VOR, NDB)
Fix

Horizontal Profiles

Position Reports

Time Latitude Longitude Heading Altitude Ground
Speed
11-Oct-20 19:15 33.669712 -117.869543 41 60ft 0kts
11-Oct-20 19:16 33.669712 -117.869543 41 60ft 0kts
11-Oct-20 19:17 33.669712 -117.869543 41 60ft 0kts
11-Oct-20 19:18 33.669712 -117.869543 41 60ft 0kts
11-Oct-20 19:19 33.669712 -117.869543 41 60ft 0kts
11-Oct-20 19:20 33.669712 -117.869543 41 60ft 0kts
11-Oct-20 19:21 33.669712 -117.869543 41 60ft 0kts
11-Oct-20 19:22 33.669712 -117.869543 41 60ft 0kts
11-Oct-20 19:23 33.669712 -117.869543 41 60ft 0kts
11-Oct-20 19:24 33.669712 -117.869543 41 60ft 0kts
11-Oct-20 19:25 33.669712 -117.869543 41 60ft 0kts
11-Oct-20 19:26 33.671509 -117.868531 32 60ft 13kts
11-Oct-20 19:27 33.674786 -117.866648 27 60ft 18kts
11-Oct-20 19:28 33.679867 -117.863506 338 60ft 0kts
11-Oct-20 19:29 33.679867 -117.863506 338 60ft 0kts
11-Oct-20 19:30 33.679867 -117.863506 338 60ft 0kts
11-Oct-20 19:31 33.679897 -117.864302 208 60ft 13kts
11-Oct-20 19:32 33.667075 -117.882260 240 854ft 93kts
11-Oct-20 19:33 33.654740 -117.909490 240 2025ft 90kts
11-Oct-20 19:34 33.642240 -117.937009 240 3045ft 97kts
11-Oct-20 19:35 33.627444 -117.969739 241 3157ft 121kts
11-Oct-20 19:36 33.611244 -118.005176 241 3145ft 120kts
11-Oct-20 19:37 33.597881 -118.041453 279 3143ft 119kts
11-Oct-20 19:38 33.623384 -118.043775 42 3179ft 119kts
11-Oct-20 19:39 33.649149 -118.018224 33 3146ft 121kts
11-Oct-20 19:40 33.677579 -117.996446 30 3144ft 121kts
11-Oct-20 19:41 33.706357 -117.974791 32 3139ft 122kts
11-Oct-20 19:42 33.734906 -117.953051 32 3156ft 121kts
11-Oct-20 19:43 33.763452 -117.931102 32 3159ft 122kts
11-Oct-20 19:44 33.792043 -117.909278 32 3154ft 122kts
11-Oct-20 19:45 33.820845 -117.887237 33 3140ft 122kts
11-Oct-20 19:46 33.849505 -117.865501 32 3140ft 119kts
11-Oct-20 19:47 33.877454 -117.844367 31 3153ft 119kts
11-Oct-20 19:48 33.905612 -117.823220 32 3152ft 119kts
11-Oct-20 19:49 33.919478 -117.792881 113 3154ft 118kts
11-Oct-20 19:50 33.895784 -117.771373 172 3156ft 118kts
11-Oct-20 19:51 33.863003 -117.766815 173 3148ft 118kts
11-Oct-20 19:52 33.830348 -117.762080 173 3151ft 118kts
11-Oct-20 19:53 33.805381 -117.778264 250 3144ft 118kts
11-Oct-20 19:54 33.783395 -117.804228 198 3043ft 110kts
11-Oct-20 19:55 33.754890 -117.817626 210 2764ft 111kts
11-Oct-20 19:56 33.732316 -117.834585 216 2372ft 112kts
11-Oct-20 19:57 33.738720 -117.859108 355 3146ft 105kts
11-Oct-20 19:58 33.769159 -117.862978 354 3193ft 114kts
11-Oct-20 19:59 33.801637 -117.866979 354 3222ft 118kts
11-Oct-20 20:00 33.827868 -117.870330 354 3226ft 119kts
11-Oct-20 20:01 33.856430 -117.850834 34 3223ft 124kts
11-Oct-20 20:02 33.885347 -117.826633 35 3202ft 127kts
11-Oct-20 20:03 33.893947 -117.789095 94 3179ft 127kts
11-Oct-20 20:04 33.879265 -117.756061 179 3153ft 126kts
11-Oct-20 20:05 33.845445 -117.762564 205 3192ft 122kts
11-Oct-20 20:06 33.815024 -117.781195 204 3128ft 125kts
11-Oct-20 20:07 33.786137 -117.799976 203 2603ft 99kts
11-Oct-20 20:08 33.765460 -117.812293 209 2082ft 80kts
11-Oct-20 20:09 33.746345 -117.824430 208 1510ft 76kts
11-Oct-20 20:10 33.728205 -117.835725 207 1130ft 75kts
11-Oct-20 20:11 33.709374 -117.847617 207 770ft 80kts
11-Oct-20 20:12 33.689999 -117.859863 206 277ft 75kts
11-Oct-20 20:13 33.674547 -117.869554 210 60ft 24kts
11-Oct-20 20:14 33.671785 -117.873168 247 60ft 17kts

Navigation Log

Ident Type
Flight plan parsing failed, navigation log unavailable